createdAt,value
2022-07-30T00:00:36.053Z,3.22
2022-07-30T00:03:04.233Z,3.35
2022-07-30T00:05:32.449Z,3.42
2022-07-30T00:08:02.060Z,3.22
2022-07-30T00:10:30.302Z,2.97
2022-07-30T00:12:58.509Z,3.30
2022-07-30T00:15:26.862Z,2.85
2022-07-30T00:17:56.031Z,2.55
2022-07-30T00:20:27.900Z,2.55
2022-07-30T00:22:56.396Z,2.13
2022-07-30T00:25:26.436Z,2.30
2022-07-30T00:27:54.639Z,2.53
2022-07-30T00:30:23.119Z,2.45
2022-07-30T00:32:51.575Z,2.25
2022-07-30T00:35:19.916Z,1.95
2022-07-30T00:37:48.155Z,1.65
2022-07-30T00:40:16.333Z,1.98
2022-07-30T00:42:47.810Z,2.30
2022-07-30T00:45:17.729Z,1.52
2022-07-30T00:47:46.297Z,1.73
2022-07-30T00:50:15.869Z,1.40
2022-07-30T00:52:44.737Z,1.13
2022-07-30T00:55:15.500Z,1.00
2022-07-30T00:57:46.148Z,1.27
2022-07-30T01:00:17.651Z,1.10
2022-07-30T01:02:45.962Z,1.20
2022-07-30T01:05:14.381Z,1.30
2022-07-30T01:07:42.848Z,1.42
2022-07-30T01:10:13.374Z,1.30
2022-07-30T01:12:41.947Z,1.48
2022-07-30T01:15:12.841Z,1.50
2022-07-30T01:17:41.067Z,1.48
2022-07-30T01:20:12.167Z,1.67
2022-07-30T01:23:00.729Z,1.65
2022-07-30T01:25:58.498Z,1.40
2022-07-30T01:28:34.784Z,1.38
2022-07-30T01:31:04.289Z,1.40
2022-07-30T01:33:33.984Z,1.40
2022-07-30T01:36:03.905Z,1.23
2022-07-30T01:38:34.777Z,1.45
2022-07-30T01:41:04.860Z,1.30
2022-07-30T01:43:36.961Z,1.67
2022-07-30T01:46:07.089Z,1.00
2022-07-30T01:48:38.238Z,1.33
2022-07-30T01:51:08.047Z,1.05
2022-07-30T01:53:40.672Z,1.30
2022-07-30T01:56:11.512Z,1.75
2022-07-30T01:58:42.405Z,1.40
2022-07-30T02:01:10.698Z,1.30
2022-07-30T02:03:39.096Z,1.48
2022-07-30T02:06:13.161Z,1.80
2022-07-30T02:08:45.428Z,1.17
2022-07-30T02:11:37.807Z,1.65
2022-07-30T02:14:12.780Z,1.42
2022-07-30T02:16:43.067Z,1.50
2022-07-30T02:19:15.537Z,1.45
2022-07-30T02:21:50.518Z,1.10
2022-07-30T02:24:23.124Z,1.83
2022-07-30T02:26:55.598Z,1.52
2022-07-30T02:29:26.426Z,1.50
2022-07-30T02:31:57.903Z,1.80
2022-07-30T02:34:26.932Z,1.55
2022-07-30T02:36:57.232Z,1.98
2022-07-30T02:39:27.204Z,1.77
2022-07-30T02:41:58.621Z,1.70
2022-07-30T02:44:30.481Z,1.85
2022-07-30T02:47:00.407Z,2.47
2022-07-30T02:49:36.388Z,2.58
2022-07-30T02:52:05.705Z,2.78
2022-07-30T02:54:34.706Z,2.47
2022-07-30T02:57:05.067Z,3.10
2022-07-30T02:59:37.312Z,2.45
2022-07-30T03:02:08.463Z,3.33
2022-07-30T03:04:37.690Z,2.88
2022-07-30T03:07:08.582Z,2.95
2022-07-30T03:09:51.248Z,3.65
2022-07-30T03:12:21.094Z,2.80
2022-07-30T03:14:51.852Z,3.55
2022-07-30T03:17:21.199Z,3.80
2022-07-30T03:19:50.711Z,3.45
2022-07-30T03:22:21.147Z,2.90
2022-07-30T03:24:50.570Z,2.75
2022-07-30T03:27:20.419Z,2.17
2022-07-30T03:29:50.834Z,2.80
2022-07-30T03:32:20.224Z,2.78
2022-07-30T03:34:54.801Z,2.38
2022-07-30T03:37:26.126Z,2.45
2022-07-30T03:39:55.350Z,2.40
2022-07-30T03:42:24.060Z,2.30
2022-07-30T03:44:54.656Z,2.20
2022-07-30T03:47:24.677Z,2.47
2022-07-30T03:49:53.445Z,2.63
2022-07-30T03:52:22.258Z,2.17
2022-07-30T03:54:52.053Z,2.55
2022-07-30T03:57:20.610Z,1.75
2022-07-30T03:59:51.704Z,2.83
2022-07-30T04:02:21.521Z,2.50
2022-07-30T04:04:49.709Z,2.00
2022-07-30T04:07:17.974Z,2.42
2022-07-30T04:09:46.324Z,2.40
2022-07-30T04:12:14.678Z,2.83
2022-07-30T04:14:44.419Z,2.63
2022-07-30T04:17:17.659Z,2.40
2022-07-30T04:19:52.546Z,2.85
2022-07-30T04:22:26.285Z,2.72
2022-07-30T04:24:56.930Z,2.50
2022-07-30T04:27:27.116Z,2.75
2022-07-30T04:29:56.204Z,3.05
2022-07-30T04:32:24.933Z,3.50
2022-07-30T04:34:57.358Z,2.97
2022-07-30T04:37:28.855Z,3.35
2022-07-30T04:39:57.866Z,3.33
2022-07-30T04:42:26.487Z,3.58
2022-07-30T04:44:55.601Z,3.67
2022-07-30T04:47:24.482Z,2.90
2022-07-30T04:49:55.864Z,2.97
2022-07-30T04:52:26.096Z,2.80
2022-07-30T04:54:57.741Z,2.92
2022-07-30T04:57:27.084Z,3.40
2022-07-30T04:59:55.758Z,2.88
2022-07-30T05:02:26.613Z,3.42
2022-07-30T05:04:57.428Z,2.75
2022-07-30T05:07:28.560Z,2.72
2022-07-30T05:09:56.944Z,2.83
2022-07-30T05:12:34.063Z,2.75
2022-07-30T05:15:02.519Z,2.92
2022-07-30T05:17:30.819Z,2.67
2022-07-30T05:20:00.703Z,3.00
2022-07-30T05:22:30.936Z,2.33
2022-07-30T05:24:59.312Z,2.15
2022-07-30T05:27:27.610Z,2.63
2022-07-30T05:29:55.950Z,2.15
2022-07-30T05:32:25.653Z,2.13
2022-07-30T05:34:58.594Z,2.40
2022-07-30T05:37:28.317Z,1.90
2022-07-30T05:40:02.259Z,1.95
2022-07-30T05:42:31.350Z,2.05
2022-07-30T05:45:00.313Z,2.17
2022-07-30T05:47:28.989Z,2.15
2022-07-30T05:49:59.383Z,2.35
2022-07-30T05:52:32.508Z,1.85
2022-07-30T05:55:00.742Z,2.33
2022-07-30T05:57:28.913Z,1.90
2022-07-30T05:59:57.139Z,2.42
2022-07-30T06:02:25.405Z,1.83
2022-07-30T06:04:53.956Z,2.08
2022-07-30T06:07:22.197Z,1.90
2022-07-30T06:09:51.862Z,2.38
2022-07-30T06:12:20.217Z,2.10
2022-07-30T06:14:48.454Z,2.22
2022-07-30T06:17:16.705Z,2.72
2022-07-30T06:19:44.848Z,1.92
2022-07-30T06:22:13.368Z,1.83
2022-07-30T06:24:41.603Z,2.22
2022-07-30T06:27:11.633Z,2.10
2022-07-30T06:29:39.945Z,2.28
2022-07-30T06:32:08.433Z,1.92
2022-07-30T06:34:36.687Z,2.35
2022-07-30T06:37:04.964Z,2.03
2022-07-30T06:39:56.180Z,2.50
2022-07-30T06:42:23.081Z,2.40
2022-07-30T06:44:51.399Z,1.98
2022-07-30T06:47:26.164Z,1.80
2022-07-30T06:49:54.744Z,2.00
2022-07-30T06:52:23.000Z,2.65
2022-07-30T06:54:51.374Z,2.53
2022-07-30T06:57:19.669Z,2.28
2022-07-30T06:59:56.124Z,2.00
2022-07-30T07:02:25.023Z,2.22
2022-07-30T07:04:53.184Z,1.80
2022-07-30T07:07:40.225Z,2.45
2022-07-30T07:10:10.200Z,2.17
2022-07-30T07:12:38.478Z,2.60
2022-07-30T07:15:09.883Z,2.35
2022-07-30T07:17:38.097Z,2.55
2022-07-30T07:20:07.239Z,2.17
2022-07-30T07:22:35.501Z,2.50
2022-07-30T07:25:03.657Z,2.45
2022-07-30T07:27:33.928Z,1.95
2022-07-30T07:30:05.938Z,2.08
2022-07-30T07:32:36.281Z,2.13
2022-07-30T07:35:04.675Z,2.25
2022-07-30T07:37:35.843Z,2.50
2022-07-30T07:40:04.278Z,2.50
2022-07-30T07:42:32.501Z,2.25
2022-07-30T07:45:00.619Z,2.38
2022-07-30T07:47:28.845Z,2.60
2022-07-30T07:49:58.616Z,1.88
2022-07-30T07:52:26.801Z,2.38
2022-07-30T07:54:55.008Z,2.40
2022-07-30T07:57:23.559Z,2.50
2022-07-30T07:59:54.457Z,1.88
2022-07-30T08:02:22.733Z,2.13
2022-07-30T08:04:51.064Z,1.98
2022-07-30T08:07:20.927Z,2.92
2022-07-30T08:09:49.166Z,2.40
2022-07-30T08:12:17.889Z,2.28
2022-07-30T08:14:46.079Z,2.80
2022-07-30T08:17:14.310Z,3.33
2022-07-30T08:19:42.839Z,2.05
2022-07-30T08:22:11.060Z,2.28
2022-07-30T08:24:41.198Z,2.67
2022-07-30T08:27:09.505Z,2.42
2022-07-30T08:29:37.971Z,2.67
2022-07-30T08:32:06.731Z,2.63
2022-07-30T08:34:34.956Z,2.53
2022-07-30T08:37:03.294Z,2.30
2022-07-30T08:39:31.586Z,2.25
2022-07-30T08:42:04.436Z,2.75
2022-07-30T08:44:34.680Z,2.33
2022-07-30T08:47:04.806Z,2.70
2022-07-30T08:49:33.487Z,2.85
2022-07-30T08:52:05.050Z,2.88
2022-07-30T08:54:34.071Z,2.55
2022-07-30T08:57:04.735Z,2.70
2022-07-30T08:59:59.124Z,2.45
2022-07-30T09:02:27.189Z,2.65
2022-07-30T09:04:56.444Z,2.83
2022-07-30T09:07:24.813Z,2.97
2022-07-30T09:09:53.091Z,2.88
2022-07-30T09:12:36.543Z,2.95
2022-07-30T09:15:08.206Z,2.58
2022-07-30T09:17:56.442Z,2.67
2022-07-30T09:20:27.414Z,2.78
2022-07-30T09:23:10.893Z,2.67
2022-07-30T09:25:40.398Z,3.40
2022-07-30T09:28:15.825Z,3.00
2022-07-30T09:30:48.296Z,4.13
2022-07-30T09:33:19.208Z,3.15
2022-07-30T09:35:57.627Z,4.47
2022-07-30T09:38:27.416Z,3.78
2022-07-30T09:40:57.950Z,3.72
2022-07-30T09:43:27.982Z,4.15
2022-07-30T09:46:00.892Z,4.07
2022-07-30T09:48:29.531Z,3.75
2022-07-30T09:50:57.925Z,3.60
2022-07-30T09:53:28.540Z,3.75
2022-07-30T09:55:59.548Z,3.60
2022-07-30T09:58:39.832Z,3.38
2022-07-30T10:01:13.877Z,4.10
2022-07-30T10:03:44.376Z,3.60
2022-07-30T10:06:15.393Z,3.13
2022-07-30T10:08:48.250Z,3.83
2022-07-30T10:11:23.457Z,3.78
2022-07-30T10:13:55.830Z,3.60
2022-07-30T10:16:26.763Z,4.50
2022-07-30T10:18:57.511Z,3.65
2022-07-30T10:21:26.592Z,3.15
2022-07-30T10:23:56.844Z,4.20
2022-07-30T10:26:26.685Z,3.80
2022-07-30T10:28:54.954Z,3.78
2022-07-30T10:31:48.442Z,4.28
2022-07-30T10:34:12.826Z,3.53
2022-07-30T10:36:46.947Z,4.20
2022-07-30T10:39:26.290Z,3.90
2022-07-30T10:42:05.980Z,4.03
2022-07-30T10:45:03.139Z,4.53
2022-07-30T10:47:40.384Z,4.30
2022-07-30T10:50:15.695Z,3.80
2022-07-30T10:52:50.555Z,4.38
2022-07-30T10:55:36.513Z,3.88
2022-07-30T10:58:08.596Z,3.35
2022-07-30T11:00:58.467Z,3.80
2022-07-30T11:03:40.123Z,3.47
2022-07-30T11:06:29.170Z,4.00
2022-07-30T11:08:58.306Z,3.80
2022-07-30T11:12:02.285Z,3.60
2022-07-30T11:15:06.583Z,3.40
2022-07-30T11:18:12.422Z,3.65
2022-07-30T11:21:05.994Z,3.97
2022-07-30T11:23:41.764Z,4.47
2022-07-30T11:26:14.108Z,3.63
2022-07-30T11:28:49.491Z,3.25
2022-07-30T11:31:55.640Z,3.90
2022-07-30T11:34:28.921Z,4.43
2022-07-30T11:37:21.952Z,3.83
2022-07-30T11:40:14.110Z,3.78
2022-07-30T11:42:43.760Z,3.22
2022-07-30T11:45:26.939Z,3.78
2022-07-30T11:47:57.509Z,3.05
2022-07-30T11:50:27.958Z,3.30
2022-07-30T11:52:59.161Z,3.17
2022-07-30T11:55:30.385Z,3.95
2022-07-30T11:58:00.121Z,3.33
2022-07-30T12:00:35.935Z,4.13
2022-07-30T12:03:10.293Z,3.35
2022-07-30T12:05:39.404Z,4.03
2022-07-30T12:08:31.495Z,3.05
2022-07-30T12:11:00.383Z,3.65
2022-07-30T12:13:44.108Z,4.18
2022-07-30T12:16:16.144Z,3.55
2022-07-30T12:18:45.363Z,3.80
2022-07-30T12:21:15.744Z,3.40
2022-07-30T12:23:56.199Z,3.55
2022-07-30T12:26:27.080Z,3.50
2022-07-30T12:28:56.582Z,3.22
2022-07-30T12:31:25.229Z,2.78
2022-07-30T12:33:53.571Z,3.17
2022-07-30T12:36:31.074Z,2.67
2022-07-30T12:39:02.193Z,2.53
2022-07-30T12:41:51.635Z,3.70
2022-07-30T12:44:39.957Z,3.30
2022-07-30T12:47:21.845Z,3.35
2022-07-30T12:49:53.281Z,3.08
2022-07-30T12:52:28.406Z,2.80
2022-07-30T12:55:07.145Z,3.05
2022-07-30T12:57:55.445Z,2.72
2022-07-30T13:00:24.897Z,2.55
2022-07-30T13:02:53.366Z,2.42
2022-07-30T13:05:22.342Z,2.40
2022-07-30T13:07:58.989Z,2.78
2022-07-30T13:10:31.429Z,2.40
2022-07-30T13:12:59.982Z,2.60
2022-07-30T13:15:28.253Z,2.75
2022-07-30T13:17:56.505Z,3.30
2022-07-30T13:20:24.809Z,3.13
2022-07-30T13:22:52.994Z,2.30
2022-07-30T13:25:21.264Z,2.80
2022-07-30T13:27:50.921Z,2.70
2022-07-30T13:30:19.209Z,3.20
2022-07-30T13:32:47.488Z,3.28
2022-07-30T13:35:16.033Z,2.80
2022-07-30T13:37:44.293Z,2.33
2022-07-30T13:40:12.645Z,2.80
2022-07-30T13:42:40.918Z,3.22
2022-07-30T13:45:11.616Z,2.80
2022-07-30T13:47:39.837Z,2.70
2022-07-30T13:50:08.504Z,2.92
2022-07-30T13:52:36.962Z,2.80
2022-07-30T13:55:05.613Z,3.17
2022-07-30T13:57:33.933Z,2.50
2022-07-30T14:00:02.360Z,2.50
2022-07-30T14:02:32.788Z,2.33
2022-07-30T14:05:06.942Z,2.75
2022-07-30T14:07:35.410Z,2.65
2022-07-30T14:10:04.376Z,2.80
2022-07-30T14:12:32.639Z,2.90
2022-07-30T14:15:00.945Z,3.35
2022-07-30T14:17:29.343Z,2.72
2022-07-30T14:19:59.056Z,3.13
2022-07-30T14:22:27.557Z,3.03
2022-07-30T14:24:55.826Z,2.65
2022-07-30T14:27:24.778Z,2.35
2022-07-30T14:29:53.295Z,2.00
2022-07-30T14:32:21.468Z,2.25
2022-07-30T14:34:52.229Z,1.65
2022-07-30T14:37:22.470Z,2.15
2022-07-30T14:39:50.755Z,2.30
2022-07-30T14:42:20.629Z,2.08
2022-07-30T14:44:50.253Z,2.85
2022-07-30T14:47:20.378Z,2.50
2022-07-30T14:49:49.620Z,3.22
2022-07-30T14:52:18.002Z,2.63
2022-07-30T14:54:47.715Z,2.60
2022-07-30T14:57:15.902Z,3.72
2022-07-30T14:59:44.581Z,2.95
2022-07-30T15:02:12.908Z,2.90
2022-07-30T15:04:41.117Z,2.90
2022-07-30T15:07:09.212Z,2.70
2022-07-30T15:09:37.739Z,2.60
2022-07-30T15:12:10.111Z,1.92
2022-07-30T15:14:39.850Z,2.45
2022-07-30T15:17:08.284Z,2.30
2022-07-30T15:19:36.530Z,2.13
2022-07-30T15:22:05.551Z,2.40
2022-07-30T15:24:34.133Z,2.10
2022-07-30T15:27:02.602Z,1.77
2022-07-30T15:29:32.417Z,1.73
2022-07-30T15:32:01.694Z,2.05
2022-07-30T15:34:34.263Z,2.10
2022-07-30T15:37:03.139Z,2.20
2022-07-30T15:39:33.030Z,2.47
2022-07-30T15:42:02.604Z,2.33
2022-07-30T15:44:33.314Z,2.33
2022-07-30T15:47:01.938Z,2.25
2022-07-30T15:49:30.400Z,2.08
2022-07-30T15:52:00.452Z,2.45
2022-07-30T15:54:29.571Z,2.40
2022-07-30T15:57:01.496Z,2.10
2022-07-30T15:59:32.164Z,1.65
2022-07-30T16:02:00.533Z,2.13
2022-07-30T16:04:31.615Z,2.58
2022-07-30T16:07:00.825Z,1.85
2022-07-30T16:09:29.170Z,2.53
2022-07-30T16:11:57.608Z,2.15
2022-07-30T16:14:26.512Z,2.33
2022-07-30T16:16:56.257Z,2.30
2022-07-30T16:19:24.441Z,1.88
2022-07-30T16:21:53.197Z,2.17
2022-07-30T16:24:21.785Z,1.55
2022-07-30T16:26:50.706Z,2.05
2022-07-30T16:29:19.261Z,1.60
2022-07-30T16:31:47.991Z,1.50
2022-07-30T16:34:17.789Z,1.80
2022-07-30T16:36:51.382Z,1.92
2022-07-30T16:39:19.582Z,1.40
2022-07-30T16:41:47.813Z,1.95
2022-07-30T16:44:15.924Z,1.75
2022-07-30T16:46:44.260Z,1.73
2022-07-30T16:49:12.526Z,2.20
2022-07-30T16:51:42.883Z,1.48
2022-07-30T16:54:11.634Z,1.42
2022-07-30T16:56:39.985Z,1.70
2022-07-30T16:59:13.283Z,1.92
2022-07-30T17:01:42.028Z,2.33
2022-07-30T17:04:10.222Z,2.22
2022-07-30T17:06:40.054Z,2.00
2022-07-30T17:09:09.809Z,1.70
2022-07-30T17:11:51.927Z,2.38
2022-07-30T17:14:22.272Z,1.52
2022-07-30T17:16:51.108Z,1.80
2022-07-30T17:19:19.409Z,2.20
2022-07-30T17:21:47.690Z,2.22
2022-07-30T17:24:17.822Z,2.03
2022-07-30T17:26:47.215Z,2.25
2022-07-30T17:29:17.055Z,2.25
2022-07-30T17:31:46.157Z,2.35
2022-07-30T17:34:15.650Z,1.95
2022-07-30T17:36:51.509Z,2.22
2022-07-30T17:40:26.344Z,2.28
2022-07-30T17:42:12.860Z,2.40
2022-07-30T17:44:43.040Z,2.67
2022-07-30T17:47:15.249Z,2.13
2022-07-30T17:49:44.865Z,2.17
2022-07-30T17:52:13.234Z,2.85
2022-07-30T17:54:42.945Z,2.75
2022-07-30T17:57:11.495Z,2.58
2022-07-30T17:59:39.946Z,2.92
2022-07-30T18:02:08.378Z,4.05
2022-07-30T18:04:36.653Z,3.15
2022-07-30T18:07:05.318Z,3.42
2022-07-30T18:09:36.124Z,2.42
2022-07-30T18:12:09.357Z,3.50
2022-07-30T18:14:37.640Z,2.80
2022-07-30T18:17:10.014Z,2.38
2022-07-30T18:19:40.992Z,2.28
2022-07-30T18:22:09.566Z,2.90
2022-07-30T18:24:40.220Z,2.67
2022-07-30T18:27:12.050Z,2.38
2022-07-30T18:29:40.368Z,3.10
2022-07-30T18:32:09.353Z,2.35
2022-07-30T18:34:37.624Z,2.72
2022-07-30T18:37:05.923Z,2.92
2022-07-30T18:39:34.280Z,2.97
2022-07-30T18:42:03.848Z,2.75
2022-07-30T18:44:33.873Z,2.72
2022-07-30T18:47:02.494Z,2.45
2022-07-30T18:49:38.359Z,2.85
2022-07-30T18:52:08.223Z,3.03
2022-07-30T18:54:37.817Z,2.80
2022-07-30T18:57:08.161Z,2.78
2022-07-30T18:59:41.105Z,2.67
2022-07-30T19:02:09.623Z,2.60
2022-07-30T19:04:37.957Z,2.90
2022-07-30T19:07:07.265Z,2.63
2022-07-30T19:09:35.550Z,2.90
2022-07-30T19:12:04.636Z,2.78
2022-07-30T19:14:33.094Z,2.58
2022-07-30T19:17:02.782Z,3.17
2022-07-30T19:19:42.181Z,2.70
2022-07-30T19:22:10.450Z,2.75
2022-07-30T19:24:38.788Z,2.50
2022-07-30T19:27:12.331Z,2.67
2022-07-30T19:29:43.526Z,2.63
2022-07-30T19:32:13.484Z,3.00
2022-07-30T19:34:43.553Z,3.22
2022-07-30T19:37:12.007Z,2.78
2022-07-30T19:40:05.690Z,2.90
2022-07-30T19:42:28.494Z,2.53
2022-07-30T19:44:58.739Z,2.67
2022-07-30T19:47:39.474Z,2.28
2022-07-30T19:50:10.021Z,3.03
2022-07-30T19:52:38.453Z,2.97
2022-07-30T19:55:17.246Z,2.95
2022-07-30T19:57:55.649Z,3.00
2022-07-30T20:00:25.387Z,3.33
2022-07-30T20:02:55.305Z,3.85
2022-07-30T20:05:24.863Z,2.42
2022-07-30T20:07:53.563Z,2.25
2022-07-30T20:10:24.086Z,2.60
2022-07-30T20:12:52.301Z,3.03
2022-07-30T20:15:20.820Z,2.15
2022-07-30T20:17:49.037Z,2.60
2022-07-30T20:20:18.913Z,2.42
2022-07-30T20:22:54.592Z,2.80
2022-07-30T20:25:22.881Z,2.90
2022-07-30T20:27:51.198Z,3.22
2022-07-30T20:30:25.398Z,2.58
2022-07-30T20:32:54.053Z,2.80
2022-07-30T20:35:26.580Z,3.00
2022-07-30T20:37:56.658Z,2.53
2022-07-30T20:40:26.978Z,2.45
2022-07-30T20:42:55.941Z,2.67
2022-07-30T20:45:25.320Z,2.97
2022-07-30T20:48:08.495Z,2.63
2022-07-30T20:50:49.210Z,2.58
2022-07-30T20:53:17.895Z,2.65
2022-07-30T20:55:46.176Z,2.95
2022-07-30T20:58:16.648Z,2.35
2022-07-30T21:00:49.627Z,3.13
2022-07-30T21:03:21.250Z,2.55
2022-07-30T21:05:52.700Z,3.10
2022-07-30T21:08:21.429Z,2.60
2022-07-30T21:10:55.065Z,2.25
2022-07-30T21:13:24.905Z,3.05
2022-07-30T21:16:03.018Z,2.60
2022-07-30T21:18:32.769Z,2.17
2022-07-30T21:21:05.413Z,2.45
2022-07-30T21:23:34.249Z,2.58
2022-07-30T21:26:06.962Z,2.08
2022-07-30T21:28:41.778Z,2.38
2022-07-30T21:31:10.113Z,2.22
2022-07-30T21:33:39.093Z,2.05
2022-07-30T21:36:10.882Z,2.72
2022-07-30T21:38:41.840Z,2.42
2022-07-30T21:41:14.199Z,2.63
2022-07-30T21:43:43.851Z,2.42
2022-07-30T21:46:12.550Z,2.30
2022-07-30T21:48:41.304Z,2.70
2022-07-30T21:51:11.945Z,2.40
2022-07-30T21:53:45.333Z,2.22
2022-07-30T21:56:15.876Z,2.53
2022-07-30T21:58:45.349Z,2.63
2022-07-30T22:01:17.095Z,2.78
2022-07-30T22:04:03.275Z,2.60
2022-07-30T22:06:38.212Z,2.90
2022-07-30T22:09:19.242Z,2.63
2022-07-30T22:11:56.941Z,2.85
2022-07-30T22:14:29.874Z,2.72
2022-07-30T22:16:59.760Z,2.97
2022-07-30T22:19:28.030Z,3.85
2022-07-30T22:21:57.676Z,3.65
2022-07-30T22:24:31.001Z,3.38
2022-07-30T22:27:10.010Z,3.50
2022-07-30T22:29:43.457Z,3.22
2022-07-30T22:32:12.566Z,3.30
2022-07-30T22:34:41.154Z,2.75
2022-07-30T22:37:13.025Z,3.28
2022-07-30T22:39:58.916Z,3.28
2022-07-30T22:42:27.165Z,3.15
2022-07-30T22:44:56.376Z,2.92
2022-07-30T22:47:50.986Z,3.58
2022-07-30T22:50:15.032Z,3.28
2022-07-30T22:52:56.011Z,3.05
2022-07-30T22:55:39.417Z,3.22
2022-07-30T22:58:09.292Z,3.25
2022-07-30T23:00:39.107Z,3.22
2022-07-30T23:03:07.806Z,3.17
2022-07-30T23:05:36.149Z,4.10
2022-07-30T23:08:09.617Z,3.50
2022-07-30T23:10:38.346Z,3.00
2022-07-30T23:15:36.241Z,3.33
2022-07-30T23:18:04.603Z,3.08
2022-07-30T23:20:32.914Z,3.15
2022-07-30T23:23:03.066Z,3.58
2022-07-30T23:25:38.725Z,3.13
2022-07-30T23:28:07.428Z,3.80
2022-07-30T23:30:35.637Z,3.47
2022-07-30T23:33:04.450Z,3.33
2022-07-30T23:35:32.913Z,3.15
2022-07-30T23:38:01.197Z,3.58
2022-07-30T23:40:29.665Z,3.53
2022-07-30T23:42:59.496Z,3.38
2022-07-30T23:45:27.995Z,3.83
2022-07-30T23:48:01.008Z,2.95
2022-07-30T23:50:32.704Z,4.38
2022-07-30T23:53:01.203Z,3.80
2022-07-30T23:55:30.407Z,3.47
2022-07-30T23:58:00.467Z,3.45
